sensor_id;sensor_type;location;lat;lon;timestamp;P1;durP1;ratioP1;P2;durP2;ratioP2
52974;SDS011;38839;45.186;5.720;2023-05-10T00:02:22;1.48;;;0.40;;
52974;SDS011;38839;45.186;5.720;2023-05-10T00:04:48;1.55;;;0.60;;
52974;SDS011;38839;45.186;5.720;2023-05-10T00:07:13;2.22;;;0.40;;
52974;SDS011;38839;45.186;5.720;2023-05-10T00:09:39;1.98;;;0.63;;
52974;SDS011;38839;45.186;5.720;2023-05-10T00:12:05;0.50;;;0.30;;
52974;SDS011;38839;45.186;5.720;2023-05-10T00:14:30;0.98;;;0.50;;
52974;SDS011;38839;45.186;5.720;2023-05-10T00:16:56;0.75;;;0.40;;
52974;SDS011;38839;45.186;5.720;2023-05-10T00:19:21;0.80;;;0.40;;
52974;SDS011;38839;45.186;5.720;2023-05-10T00:21:47;2.50;;;0.40;;
52974;SDS011;38839;45.186;5.720;2023-05-10T00:24:12;1.15;;;0.60;;
52974;SDS011;38839;45.186;5.720;2023-05-10T00:26:38;1.25;;;0.60;;
52974;SDS011;38839;45.186;5.720;2023-05-10T00:29:03;0.85;;;0.50;;
52974;SDS011;38839;45.186;5.720;2023-05-10T00:31:28;1.35;;;0.70;;
52974;SDS011;38839;45.186;5.720;2023-05-10T00:33:54;1.17;;;0.47;;
52974;SDS011;38839;45.186;5.720;2023-05-10T00:36:20;1.13;;;0.47;;
52974;SDS011;38839;45.186;5.720;2023-05-10T00:38:46;1.45;;;0.55;;
52974;SDS011;38839;45.186;5.720;2023-05-10T00:41:11;1.00;;;0.40;;
52974;SDS011;38839;45.186;5.720;2023-05-10T00:43:37;1.25;;;0.68;;
52974;SDS011;38839;45.186;5.720;2023-05-10T00:46:02;0.82;;;0.68;;
52974;SDS011;38839;45.186;5.720;2023-05-10T00:48:28;1.85;;;0.50;;
52974;SDS011;38839;45.186;5.720;2023-05-10T00:50:54;1.25;;;0.70;;
52974;SDS011;38839;45.186;5.720;2023-05-10T00:53:20;1.15;;;0.50;;
52974;SDS011;38839;45.186;5.720;2023-05-10T00:55:46;1.02;;;0.50;;
52974;SDS011;38839;45.186;5.720;2023-05-10T00:58:12;0.73;;;0.50;;
52974;SDS011;38839;45.186;5.720;2023-05-10T01:00:37;2.80;;;0.40;;
52974;SDS011;38839;45.186;5.720;2023-05-10T01:03:07;0.98;;;0.40;;
52974;SDS011;38839;45.186;5.720;2023-05-10T01:05:32;0.55;;;0.30;;
52974;SDS011;38839;45.186;5.720;2023-05-10T01:07:57;3.50;;;0.50;;
52974;SDS011;38839;45.186;5.720;2023-05-10T01:10:23;1.50;;;0.45;;
52974;SDS011;38839;45.186;5.720;2023-05-10T01:12:48;1.40;;;0.40;;
52974;SDS011;38839;45.186;5.720;2023-05-10T01:15:14;2.50;;;0.38;;
52974;SDS011;38839;45.186;5.720;2023-05-10T01:17:42;2.83;;;0.60;;
52974;SDS011;38839;45.186;5.720;2023-05-10T01:20:10;1.98;;;0.38;;
52974;SDS011;38839;45.186;5.720;2023-05-10T01:30:58;3.60;;;0.65;;
52974;SDS011;38839;45.186;5.720;2023-05-10T01:33:52;2.08;;;0.50;;
52974;SDS011;38839;45.186;5.720;2023-05-10T01:41:52;2.80;;;0.80;;
52974;SDS011;38839;45.186;5.720;2023-05-10T01:47:14;1.60;;;0.70;;
52974;SDS011;38839;45.186;5.720;2023-05-10T01:49:52;0.63;;;0.40;;
52974;SDS011;38839;45.186;5.720;2023-05-10T01:52:22;1.35;;;0.50;;
52974;SDS011;38839;45.186;5.720;2023-05-10T01:54:55;1.17;;;0.50;;
52974;SDS011;38839;45.186;5.720;2023-05-10T01:57:27;0.28;;;0.25;;
52974;SDS011;38839;45.186;5.720;2023-05-10T01:59:57;1.75;;;0.30;;
52974;SDS011;38839;45.186;5.720;2023-05-10T02:02:25;1.73;;;0.55;;
52974;SDS011;38839;45.186;5.720;2023-05-10T02:04:53;1.95;;;0.50;;
52974;SDS011;38839;45.186;5.720;2023-05-10T02:07:20;1.08;;;0.50;;
52974;SDS011;38839;45.186;5.720;2023-05-10T02:09:48;1.70;;;0.50;;
52974;SDS011;38839;45.186;5.720;2023-05-10T02:12:13;2.40;;;0.70;;
52974;SDS011;38839;45.186;5.720;2023-05-10T02:14:40;0.57;;;0.43;;
52974;SDS011;38839;45.186;5.720;2023-05-10T02:17:10;0.70;;;0.60;;
52974;SDS011;38839;45.186;5.720;2023-05-10T02:19:37;3.25;;;0.73;;
52974;SDS011;38839;45.186;5.720;2023-05-10T02:22:04;2.22;;;0.63;;
52974;SDS011;38839;45.186;5.720;2023-05-10T02:24:31;2.90;;;0.50;;
52974;SDS011;38839;45.186;5.720;2023-05-10T02:26:58;1.55;;;0.47;;
52974;SDS011;38839;45.186;5.720;2023-05-10T02:29:25;2.70;;;0.60;;
52974;SDS011;38839;45.186;5.720;2023-05-10T02:31:52;2.63;;;0.70;;
52974;SDS011;38839;45.186;5.720;2023-05-10T02:34:21;0.80;;;0.60;;
52974;SDS011;38839;45.186;5.720;2023-05-10T02:36:48;1.75;;;0.50;;
52974;SDS011;38839;45.186;5.720;2023-05-10T02:39:21;1.45;;;0.50;;
52974;SDS011;38839;45.186;5.720;2023-05-10T02:41:50;1.95;;;0.82;;
52974;SDS011;38839;45.186;5.720;2023-05-10T02:44:18;0.50;;;0.40;;
52974;SDS011;38839;45.186;5.720;2023-05-10T02:46:45;0.98;;;0.30;;
52974;SDS011;38839;45.186;5.720;2023-05-10T02:49:11;1.17;;;0.30;;
52974;SDS011;38839;45.186;5.720;2023-05-10T02:51:39;1.15;;;0.30;;
52974;SDS011;38839;45.186;5.720;2023-05-10T02:56:35;0.57;;;0.20;;
52974;SDS011;38839;45.186;5.720;2023-05-10T02:59:05;0.52;;;0.20;;
52974;SDS011;38839;45.186;5.720;2023-05-10T03:01:31;1.20;;;0.20;;
52974;SDS011;38839;45.186;5.720;2023-05-10T03:03:57;0.50;;;0.25;;
52974;SDS011;38839;45.186;5.720;2023-05-10T03:06:22;0.60;;;0.30;;
52974;SDS011;38839;45.186;5.720;2023-05-10T03:08:47;1.42;;;0.43;;
52974;SDS011;38839;45.186;5.720;2023-05-10T03:13:52;0.50;;;0.20;;
52974;SDS011;38839;45.186;5.720;2023-05-10T03:16:42;0.47;;;0.28;;
52974;SDS011;38839;45.186;5.720;2023-05-10T03:19:32;0.43;;;0.30;;
52974;SDS011;38839;45.186;5.720;2023-05-10T03:22:08;0.55;;;0.15;;
52974;SDS011;38839;45.186;5.720;2023-05-10T03:24:35;0.68;;;0.43;;
52974;SDS011;38839;45.186;5.720;2023-05-10T03:27:04;1.23;;;0.30;;
52974;SDS011;38839;45.186;5.720;2023-05-10T03:29:31;0.43;;;0.20;;
52974;SDS011;38839;45.186;5.720;2023-05-10T03:32:00;0.90;;;0.30;;
52974;SDS011;38839;45.186;5.720;2023-05-10T03:34:25;0.27;;;0.27;;
52974;SDS011;38839;45.186;5.720;2023-05-10T03:36:52;1.40;;;0.40;;
52974;SDS011;38839;45.186;5.720;2023-05-10T03:39:18;0.43;;;0.20;;
52974;SDS011;38839;45.186;5.720;2023-05-10T03:41:44;1.23;;;0.20;;
52974;SDS011;38839;45.186;5.720;2023-05-10T03:44:09;2.72;;;0.30;;
52974;SDS011;38839;45.186;5.720;2023-05-10T03:46:35;0.22;;;0.22;;
52974;SDS011;38839;45.186;5.720;2023-05-10T03:49:01;0.55;;;0.30;;
52974;SDS011;38839;45.186;5.720;2023-05-10T03:51:26;0.40;;;0.38;;
52974;SDS011;38839;45.186;5.720;2023-05-10T03:53:53;1.13;;;0.40;;
52974;SDS011;38839;45.186;5.720;2023-05-10T03:56:19;1.15;;;0.30;;
52974;SDS011;38839;45.186;5.720;2023-05-10T03:58:45;2.08;;;0.32;;
52974;SDS011;38839;45.186;5.720;2023-05-10T04:01:11;3.00;;;0.40;;
52974;SDS011;38839;45.186;5.720;2023-05-10T04:03:36;1.45;;;0.40;;
52974;SDS011;38839;45.186;5.720;2023-05-10T04:06:03;1.15;;;0.55;;
52974;SDS011;38839;45.186;5.720;2023-05-10T04:08:29;0.60;;;0.50;;
52974;SDS011;38839;45.186;5.720;2023-05-10T04:10:55;1.83;;;0.43;;
52974;SDS011;38839;45.186;5.720;2023-05-10T04:13:30;1.80;;;0.50;;
52974;SDS011;38839;45.186;5.720;2023-05-10T04:15:56;1.88;;;0.40;;
52974;SDS011;38839;45.186;5.720;2023-05-10T04:18:21;0.57;;;0.10;;
52974;SDS011;38839;45.186;5.720;2023-05-10T04:20:46;1.88;;;0.35;;
52974;SDS011;38839;45.186;5.720;2023-05-10T04:23:12;0.75;;;0.28;;
52974;SDS011;38839;45.186;5.720;2023-05-10T04:25:46;2.28;;;0.20;;
52974;SDS011;38839;45.186;5.720;2023-05-10T04:28:11;2.05;;;0.20;;
52974;SDS011;38839;45.186;5.720;2023-05-10T04:30:37;1.38;;;0.30;;
52974;SDS011;38839;45.186;5.720;2023-05-10T04:33:03;0.80;;;0.40;;
52974;SDS011;38839;45.186;5.720;2023-05-10T04:35:29;0.80;;;0.25;;
52974;SDS011;38839;45.186;5.720;2023-05-10T04:37:54;0.70;;;0.30;;
52974;SDS011;38839;45.186;5.720;2023-05-10T04:40:20;3.63;;;0.40;;
52974;SDS011;38839;45.186;5.720;2023-05-10T04:42:45;1.30;;;0.30;;
52974;SDS011;38839;45.186;5.720;2023-05-10T04:45:11;0.73;;;0.38;;
52974;SDS011;38839;45.186;5.720;2023-05-10T04:47:37;0.40;;;0.30;;
52974;SDS011;38839;45.186;5.720;2023-05-10T04:50:03;1.33;;;0.30;;
52974;SDS011;38839;45.186;5.720;2023-05-10T04:52:29;0.75;;;0.47;;
52974;SDS011;38839;45.186;5.720;2023-05-10T04:54:54;0.95;;;0.35;;
52974;SDS011;38839;45.186;5.720;2023-05-10T04:57:20;0.73;;;0.60;;
52974;SDS011;38839;45.186;5.720;2023-05-10T04:59:46;1.27;;;0.38;;
52974;SDS011;38839;45.186;5.720;2023-05-10T05:02:11;1.02;;;0.57;;
52974;SDS011;38839;45.186;5.720;2023-05-10T05:04:37;1.40;;;0.40;;
52974;SDS011;38839;45.186;5.720;2023-05-10T05:07:02;3.13;;;1.20;;
52974;SDS011;38839;45.186;5.720;2023-05-10T05:09:27;3.22;;;1.98;;
52974;SDS011;38839;45.186;5.720;2023-05-10T05:11:53;1.15;;;0.60;;
52974;SDS011;38839;45.186;5.720;2023-05-10T05:14:18;4.32;;;0.55;;
52974;SDS011;38839;45.186;5.720;2023-05-10T05:16:45;0.77;;;0.43;;
52974;SDS011;38839;45.186;5.720;2023-05-10T05:19:11;3.15;;;0.50;;
52974;SDS011;38839;45.186;5.720;2023-05-10T05:21:36;2.97;;;0.50;;
52974;SDS011;38839;45.186;5.720;2023-05-10T05:24:02;2.45;;;0.70;;
52974;SDS011;38839;45.186;5.720;2023-05-10T05:26:27;1.02;;;0.60;;
52974;SDS011;38839;45.186;5.720;2023-05-10T05:28:53;1.90;;;0.47;;
52974;SDS011;38839;45.186;5.720;2023-05-10T05:31:19;2.17;;;0.60;;
52974;SDS011;38839;45.186;5.720;2023-05-10T05:33:45;3.03;;;0.63;;
52974;SDS011;38839;45.186;5.720;2023-05-10T05:36:11;1.35;;;0.68;;
52974;SDS011;38839;45.186;5.720;2023-05-10T05:38:36;1.42;;;0.50;;
52974;SDS011;38839;45.186;5.720;2023-05-10T05:41:02;1.98;;;0.50;;
52974;SDS011;38839;45.186;5.720;2023-05-10T05:43:28;3.05;;;0.77;;
52974;SDS011;38839;45.186;5.720;2023-05-10T05:45:53;2.75;;;0.50;;
52974;SDS011;38839;45.186;5.720;2023-05-10T05:48:19;2.20;;;0.43;;
52974;SDS011;38839;45.186;5.720;2023-05-10T05:50:45;0.63;;;0.47;;
52974;SDS011;38839;45.186;5.720;2023-05-10T05:53:10;3.63;;;0.60;;
52974;SDS011;38839;45.186;5.720;2023-05-10T05:55:36;1.33;;;0.50;;
52974;SDS011;38839;45.186;5.720;2023-05-10T05:58:01;2.00;;;0.55;;
52974;SDS011;38839;45.186;5.720;2023-05-10T06:00:27;1.75;;;0.60;;
52974;SDS011;38839;45.186;5.720;2023-05-10T06:02:52;1.92;;;0.45;;
52974;SDS011;38839;45.186;5.720;2023-05-10T06:05:18;2.15;;;0.35;;
52974;SDS011;38839;45.186;5.720;2023-05-10T06:07:43;1.98;;;0.50;;
52974;SDS011;38839;45.186;5.720;2023-05-10T06:10:09;2.08;;;0.45;;
52974;SDS011;38839;45.186;5.720;2023-05-10T06:12:35;1.63;;;0.68;;
52974;SDS011;38839;45.186;5.720;2023-05-10T06:15:01;3.10;;;0.70;;
52974;SDS011;38839;45.186;5.720;2023-05-10T06:17:27;2.60;;;0.50;;
52974;SDS011;38839;45.186;5.720;2023-05-10T06:19:52;4.47;;;0.80;;
52974;SDS011;38839;45.186;5.720;2023-05-10T06:22:17;3.90;;;0.40;;
52974;SDS011;38839;45.186;5.720;2023-05-10T06:24:43;3.00;;;0.75;;
52974;SDS011;38839;45.186;5.720;2023-05-10T06:27:09;1.65;;;0.70;;
52974;SDS011;38839;45.186;5.720;2023-05-10T06:29:35;5.45;;;1.00;;
52974;SDS011;38839;45.186;5.720;2023-05-10T06:32:00;3.47;;;1.00;;
52974;SDS011;38839;45.186;5.720;2023-05-10T06:34:27;2.35;;;0.82;;
52974;SDS011;38839;45.186;5.720;2023-05-10T06:36:56;2.90;;;0.95;;
52974;SDS011;38839;45.186;5.720;2023-05-10T06:39:21;2.80;;;0.60;;
52974;SDS011;38839;45.186;5.720;2023-05-10T06:41:47;2.40;;;0.70;;
52974;SDS011;38839;45.186;5.720;2023-05-10T06:44:12;3.15;;;0.80;;
52974;SDS011;38839;45.186;5.720;2023-05-10T06:46:38;5.20;;;1.08;;
52974;SDS011;38839;45.186;5.720;2023-05-10T06:49:03;4.68;;;0.65;;
52974;SDS011;38839;45.186;5.720;2023-05-10T06:51:29;4.53;;;0.68;;
52974;SDS011;38839;45.186;5.720;2023-05-10T06:53:54;4.72;;;0.80;;
52974;SDS011;38839;45.186;5.720;2023-05-10T06:56:20;3.50;;;1.10;;
52974;SDS011;38839;45.186;5.720;2023-05-10T06:58:47;3.20;;;0.75;;
52974;SDS011;38839;45.186;5.720;2023-05-10T07:01:12;2.72;;;0.93;;
52974;SDS011;38839;45.186;5.720;2023-05-10T07:03:38;3.33;;;0.60;;
52974;SDS011;38839;45.186;5.720;2023-05-10T07:06:05;3.13;;;0.77;;
52974;SDS011;38839;45.186;5.720;2023-05-10T07:08:32;3.63;;;0.60;;
52974;SDS011;38839;45.186;5.720;2023-05-10T07:11:01;2.05;;;0.40;;
52974;SDS011;38839;45.186;5.720;2023-05-10T07:13:28;2.80;;;0.60;;
52974;SDS011;38839;45.186;5.720;2023-05-10T07:15:55;1.98;;;0.70;;
52974;SDS011;38839;45.186;5.720;2023-05-10T07:18:20;5.90;;;1.17;;
52974;SDS011;38839;45.186;5.720;2023-05-10T07:20:46;2.70;;;0.70;;
52974;SDS011;38839;45.186;5.720;2023-05-10T07:23:11;2.00;;;0.80;;
52974;SDS011;38839;45.186;5.720;2023-05-10T07:25:37;4.63;;;0.70;;
52974;SDS011;38839;45.186;5.720;2023-05-10T07:28:02;5.63;;;0.90;;
52974;SDS011;38839;45.186;5.720;2023-05-10T07:30:28;3.72;;;1.00;;
52974;SDS011;38839;45.186;5.720;2023-05-10T07:32:53;3.40;;;0.80;;
52974;SDS011;38839;45.186;5.720;2023-05-10T07:35:19;5.68;;;0.60;;
52974;SDS011;38839;45.186;5.720;2023-05-10T07:37:44;3.70;;;0.82;;
52974;SDS011;38839;45.186;5.720;2023-05-10T07:40:10;2.63;;;0.80;;
52974;SDS011;38839;45.186;5.720;2023-05-10T07:42:35;4.00;;;0.70;;
52974;SDS011;38839;45.186;5.720;2023-05-10T07:45:01;1.67;;;0.95;;
52974;SDS011;38839;45.186;5.720;2023-05-10T07:47:26;2.55;;;0.80;;
52974;SDS011;38839;45.186;5.720;2023-05-10T07:49:52;2.42;;;0.80;;
52974;SDS011;38839;45.186;5.720;2023-05-10T07:52:17;2.70;;;1.10;;
52974;SDS011;38839;45.186;5.720;2023-05-10T07:54:43;4.32;;;0.93;;
52974;SDS011;38839;45.186;5.720;2023-05-10T07:57:09;4.18;;;1.20;;
52974;SDS011;38839;45.186;5.720;2023-05-10T07:59:34;3.45;;;1.02;;
52974;SDS011;38839;45.186;5.720;2023-05-10T08:02:00;2.28;;;0.70;;
52974;SDS011;38839;45.186;5.720;2023-05-10T08:04:26;6.07;;;1.08;;
52974;SDS011;38839;45.186;5.720;2023-05-10T08:06:52;6.00;;;0.93;;
52974;SDS011;38839;45.186;5.720;2023-05-10T08:09:17;8.02;;;0.93;;
52974;SDS011;38839;45.186;5.720;2023-05-10T08:11:43;1.73;;;0.73;;
52974;SDS011;38839;45.186;5.720;2023-05-10T08:14:08;3.60;;;0.75;;
52974;SDS011;38839;45.186;5.720;2023-05-10T08:16:33;4.45;;;0.65;;
52974;SDS011;38839;45.186;5.720;2023-05-10T08:18:59;5.25;;;1.50;;
52974;SDS011;38839;45.186;5.720;2023-05-10T08:21:24;3.20;;;1.00;;
52974;SDS011;38839;45.186;5.720;2023-05-10T08:23:51;2.50;;;1.10;;
52974;SDS011;38839;45.186;5.720;2023-05-10T08:26:16;3.85;;;1.13;;
52974;SDS011;38839;45.186;5.720;2023-05-10T08:28:42;6.93;;;1.67;;
52974;SDS011;38839;45.186;5.720;2023-05-10T08:31:07;5.20;;;1.10;;
52974;SDS011;38839;45.186;5.720;2023-05-10T08:33:32;4.43;;;1.20;;
52974;SDS011;38839;45.186;5.720;2023-05-10T08:35:58;5.13;;;1.05;;
52974;SDS011;38839;45.186;5.720;2023-05-10T08:38:23;4.88;;;0.98;;
52974;SDS011;38839;45.186;5.720;2023-05-10T08:40:49;3.78;;;1.33;;
52974;SDS011;38839;45.186;5.720;2023-05-10T08:43:21;5.40;;;1.40;;
52974;SDS011;38839;45.186;5.720;2023-05-10T08:48:20;4.68;;;1.20;;
52974;SDS011;38839;45.186;5.720;2023-05-10T08:50:59;2.00;;;0.63;;
52974;SDS011;38839;45.186;5.720;2023-05-10T08:53:25;8.07;;;1.17;;
52974;SDS011;38839;45.186;5.720;2023-05-10T08:55:52;4.07;;;1.00;;
52974;SDS011;38839;45.186;5.720;2023-05-10T08:58:17;4.03;;;1.40;;
52974;SDS011;38839;45.186;5.720;2023-05-10T09:00:44;4.53;;;0.98;;
52974;SDS011;38839;45.186;5.720;2023-05-10T09:03:11;4.22;;;1.05;;
52974;SDS011;38839;45.186;5.720;2023-05-10T09:05:38;3.03;;;1.20;;
52974;SDS011;38839;45.186;5.720;2023-05-10T09:08:03;2.55;;;0.70;;
52974;SDS011;38839;45.186;5.720;2023-05-10T09:10:31;1.55;;;0.77;;
52974;SDS011;38839;45.186;5.720;2023-05-10T09:12:57;3.10;;;0.70;;
52974;SDS011;38839;45.186;5.720;2023-05-10T09:15:24;2.28;;;0.85;;
52974;SDS011;38839;45.186;5.720;2023-05-10T09:17:50;2.63;;;0.93;;
52974;SDS011;38839;45.186;5.720;2023-05-10T09:20:16;3.42;;;1.27;;
52974;SDS011;38839;45.186;5.720;2023-05-10T09:22:45;4.95;;;1.10;;
52974;SDS011;38839;45.186;5.720;2023-05-10T09:25:11;3.72;;;0.98;;
52974;SDS011;38839;45.186;5.720;2023-05-10T09:27:38;3.22;;;1.00;;
52974;SDS011;38839;45.186;5.720;2023-05-10T09:30:05;2.72;;;0.93;;
52974;SDS011;38839;45.186;5.720;2023-05-10T09:32:42;5.43;;;1.13;;
52974;SDS011;38839;45.186;5.720;2023-05-10T09:37:35;6.00;;;0.90;;
52974;SDS011;38839;45.186;5.720;2023-05-10T09:40:03;2.55;;;1.10;;
52974;SDS011;38839;45.186;5.720;2023-05-10T09:42:29;4.22;;;1.15;;
52974;SDS011;38839;45.186;5.720;2023-05-10T09:44:59;3.58;;;0.95;;
52974;SDS011;38839;45.186;5.720;2023-05-10T09:47:26;4.45;;;0.82;;
52974;SDS011;38839;45.186;5.720;2023-05-10T09:49:52;3.50;;;0.95;;
52974;SDS011;38839;45.186;5.720;2023-05-10T09:52:18;6.43;;;0.60;;
52974;SDS011;38839;45.186;5.720;2023-05-10T09:54:52;4.70;;;1.20;;
52974;SDS011;38839;45.186;5.720;2023-05-10T09:57:22;1.67;;;0.80;;
52974;SDS011;38839;45.186;5.720;2023-05-10T09:59:49;1.90;;;0.52;;
52974;SDS011;38839;45.186;5.720;2023-05-10T10:02:15;1.45;;;0.70;;
52974;SDS011;38839;45.186;5.720;2023-05-10T10:04:42;2.05;;;0.60;;
52974;SDS011;38839;45.186;5.720;2023-05-10T10:07:07;3.10;;;0.77;;
52974;SDS011;38839;45.186;5.720;2023-05-10T10:09:34;3.65;;;0.93;;
52974;SDS011;38839;45.186;5.720;2023-05-10T10:12:00;2.85;;;0.73;;
52974;SDS011;38839;45.186;5.720;2023-05-10T10:14:27;6.80;;;1.77;;
52974;SDS011;38839;45.186;5.720;2023-05-10T10:16:55;8.23;;;1.83;;
52974;SDS011;38839;45.186;5.720;2023-05-10T10:19:21;6.20;;;1.20;;
52974;SDS011;38839;45.186;5.720;2023-05-10T10:21:47;2.10;;;1.00;;
52974;SDS011;38839;45.186;5.720;2023-05-10T10:24:17;3.97;;;1.23;;
52974;SDS011;38839;45.186;5.720;2023-05-10T10:26:42;3.95;;;0.90;;
52974;SDS011;38839;45.186;5.720;2023-05-10T10:29:45;3.47;;;1.10;;
52974;SDS011;38839;45.186;5.720;2023-05-10T10:35:18;3.45;;;1.10;;
52974;SDS011;38839;45.186;5.720;2023-05-10T10:37:47;3.65;;;1.50;;
52974;SDS011;38839;45.186;5.720;2023-05-10T10:40:25;2.38;;;0.93;;
52974;SDS011;38839;45.186;5.720;2023-05-10T10:42:55;1.65;;;0.65;;
52974;SDS011;38839;45.186;5.720;2023-05-10T10:45:21;3.67;;;0.82;;
52974;SDS011;38839;45.186;5.720;2023-05-10T10:47:48;3.63;;;1.15;;
52974;SDS011;38839;45.186;5.720;2023-05-10T10:50:14;3.55;;;1.33;;
52974;SDS011;38839;45.186;5.720;2023-05-10T10:52:44;3.33;;;1.10;;
52974;SDS011;38839;45.186;5.720;2023-05-10T10:55:12;2.60;;;0.70;;
52974;SDS011;38839;45.186;5.720;2023-05-10T10:57:48;3.47;;;0.88;;
52974;SDS011;38839;45.186;5.720;2023-05-10T11:00:24;2.97;;;0.80;;
52974;SDS011;38839;45.186;5.720;2023-05-10T11:05:39;2.35;;;0.80;;
52974;SDS011;38839;45.186;5.720;2023-05-10T11:10:40;4.20;;;0.70;;
52974;SDS011;38839;45.186;5.720;2023-05-10T11:13:13;2.15;;;0.60;;
52974;SDS011;38839;45.186;5.720;2023-05-10T11:15:39;2.15;;;0.40;;
52974;SDS011;38839;45.186;5.720;2023-05-10T11:18:18;3.38;;;0.90;;
52974;SDS011;38839;45.186;5.720;2023-05-10T11:20:44;2.75;;;0.90;;
52974;SDS011;38839;45.186;5.720;2023-05-10T11:23:14;4.03;;;1.10;;
52974;SDS011;38839;45.186;5.720;2023-05-10T11:25:41;6.80;;;1.35;;
52974;SDS011;38839;45.186;5.720;2023-05-10T11:28:08;2.08;;;0.70;;
52974;SDS011;38839;45.186;5.720;2023-05-10T11:30:33;3.67;;;1.10;;
52974;SDS011;38839;45.186;5.720;2023-05-10T11:32:59;2.53;;;0.90;;
52974;SDS011;38839;45.186;5.720;2023-05-10T11:35:27;1.50;;;0.70;;
52974;SDS011;38839;45.186;5.720;2023-05-10T11:37:52;2.72;;;0.70;;
52974;SDS011;38839;45.186;5.720;2023-05-10T11:40:18;5.15;;;1.02;;
52974;SDS011;38839;45.186;5.720;2023-05-10T11:42:44;3.42;;;0.93;;
52974;SDS011;38839;45.186;5.720;2023-05-10T11:45:10;2.40;;;0.95;;
52974;SDS011;38839;45.186;5.720;2023-05-10T11:47:36;2.28;;;0.70;;
52974;SDS011;38839;45.186;5.720;2023-05-10T11:50:02;4.07;;;0.68;;
52974;SDS011;38839;45.186;5.720;2023-05-10T11:52:28;2.65;;;0.82;;
52974;SDS011;38839;45.186;5.720;2023-05-10T11:54:54;3.13;;;1.00;;
52974;SDS011;38839;45.186;5.720;2023-05-10T11:57:20;1.77;;;0.70;;
52974;SDS011;38839;45.186;5.720;2023-05-10T11:59:54;3.30;;;0.77;;
52974;SDS011;38839;45.186;5.720;2023-05-10T12:04:45;1.17;;;0.77;;
52974;SDS011;38839;45.186;5.720;2023-05-10T12:07:11;1.75;;;0.68;;
52974;SDS011;38839;45.186;5.720;2023-05-10T12:09:37;5.45;;;0.90;;
52974;SDS011;38839;45.186;5.720;2023-05-10T12:12:02;2.63;;;0.70;;
52974;SDS011;38839;45.186;5.720;2023-05-10T12:14:27;2.85;;;0.82;;
52974;SDS011;38839;45.186;5.720;2023-05-10T12:16:58;1.35;;;0.45;;
52974;SDS011;38839;45.186;5.720;2023-05-10T12:19:23;3.00;;;0.88;;
52974;SDS011;38839;45.186;5.720;2023-05-10T12:21:49;1.60;;;0.70;;
52974;SDS011;38839;45.186;5.720;2023-05-10T12:24:14;1.20;;;0.50;;
52974;SDS011;38839;45.186;5.720;2023-05-10T12:26:42;2.22;;;0.55;;
52974;SDS011;38839;45.186;5.720;2023-05-10T12:29:15;1.20;;;0.52;;
52974;SDS011;38839;45.186;5.720;2023-05-10T12:34:27;2.40;;;0.63;;
52974;SDS011;38839;45.186;5.720;2023-05-10T12:36:56;2.05;;;0.50;;
52974;SDS011;38839;45.186;5.720;2023-05-10T12:39:21;2.58;;;0.63;;
52974;SDS011;38839;45.186;5.720;2023-05-10T12:41:47;1.48;;;0.40;;
52974;SDS011;38839;45.186;5.720;2023-05-10T12:44:12;2.95;;;0.60;;
52974;SDS011;38839;45.186;5.720;2023-05-10T12:46:37;4.88;;;0.90;;
52974;SDS011;38839;45.186;5.720;2023-05-10T12:49:03;2.70;;;0.80;;
52974;SDS011;38839;45.186;5.720;2023-05-10T12:51:28;1.50;;;0.50;;
52974;SDS011;38839;45.186;5.720;2023-05-10T12:53:53;2.50;;;0.55;;
52974;SDS011;38839;45.186;5.720;2023-05-10T12:56:19;2.55;;;0.65;;
52974;SDS011;38839;45.186;5.720;2023-05-10T12:58:45;6.78;;;0.80;;
52974;SDS011;38839;45.186;5.720;2023-05-10T13:01:16;1.00;;;0.35;;
52974;SDS011;38839;45.186;5.720;2023-05-10T13:03:42;1.45;;;0.68;;
52974;SDS011;38839;45.186;5.720;2023-05-10T13:06:08;1.65;;;0.50;;
52974;SDS011;38839;45.186;5.720;2023-05-10T13:08:33;1.50;;;0.50;;
52974;SDS011;38839;45.186;5.720;2023-05-10T13:11:02;2.28;;;0.60;;
52974;SDS011;38839;45.186;5.720;2023-05-10T13:13:28;2.65;;;0.47;;
52974;SDS011;38839;45.186;5.720;2023-05-10T13:15:53;3.45;;;0.50;;
52974;SDS011;38839;45.186;5.720;2023-05-10T13:18:18;1.40;;;0.70;;
52974;SDS011;38839;45.186;5.720;2023-05-10T13:20:44;2.45;;;0.50;;
52974;SDS011;38839;45.186;5.720;2023-05-10T13:23:10;1.23;;;0.45;;
52974;SDS011;38839;45.186;5.720;2023-05-10T13:25:35;1.88;;;0.50;;
52974;SDS011;38839;45.186;5.720;2023-05-10T13:28:04;1.92;;;0.50;;
52974;SDS011;38839;45.186;5.720;2023-05-10T13:30:30;0.80;;;0.50;;
52974;SDS011;38839;45.186;5.720;2023-05-10T13:32:56;0.95;;;0.50;;
52974;SDS011;38839;45.186;5.720;2023-05-10T13:35:21;1.23;;;0.40;;
52974;SDS011;38839;45.186;5.720;2023-05-10T13:37:47;3.58;;;0.60;;
52974;SDS011;38839;45.186;5.720;2023-05-10T13:40:12;1.75;;;0.50;;
52974;SDS011;38839;45.186;5.720;2023-05-10T13:42:38;1.55;;;0.57;;
52974;SDS011;38839;45.186;5.720;2023-05-10T13:45:04;1.75;;;0.47;;
52974;SDS011;38839;45.186;5.720;2023-05-10T13:47:30;2.10;;;0.47;;
52974;SDS011;38839;45.186;5.720;2023-05-10T13:49:56;1.60;;;0.50;;
52974;SDS011;38839;45.186;5.720;2023-05-10T13:52:22;1.17;;;0.40;;
52974;SDS011;38839;45.186;5.720;2023-05-10T13:54:49;5.72;;;0.60;;
52974;SDS011;38839;45.186;5.720;2023-05-10T13:57:17;1.58;;;0.60;;
52974;SDS011;38839;45.186;5.720;2023-05-10T13:59:43;2.42;;;0.47;;
52974;SDS011;38839;45.186;5.720;2023-05-10T14:02:08;3.63;;;0.80;;
52974;SDS011;38839;45.186;5.720;2023-05-10T14:04:33;2.65;;;0.60;;
52974;SDS011;38839;45.186;5.720;2023-05-10T14:07:00;3.63;;;0.50;;
52974;SDS011;38839;45.186;5.720;2023-05-10T14:09:25;1.40;;;0.50;;
52974;SDS011;38839;45.186;5.720;2023-05-10T14:11:51;1.48;;;0.30;;
52974;SDS011;38839;45.186;5.720;2023-05-10T14:14:16;0.70;;;0.32;;
52974;SDS011;38839;45.186;5.720;2023-05-10T14:16:42;3.08;;;0.47;;
52974;SDS011;38839;45.186;5.720;2023-05-10T14:19:09;3.22;;;0.70;;
52974;SDS011;38839;45.186;5.720;2023-05-10T14:21:34;2.97;;;0.60;;
52974;SDS011;38839;45.186;5.720;2023-05-10T14:24:00;1.27;;;0.40;;
52974;SDS011;38839;45.186;5.720;2023-05-10T14:26:25;4.53;;;0.50;;
52974;SDS011;38839;45.186;5.720;2023-05-10T14:28:51;3.72;;;0.95;;
52974;SDS011;38839;45.186;5.720;2023-05-10T14:31:17;1.98;;;0.47;;
52974;SDS011;38839;45.186;5.720;2023-05-10T14:33:46;0.63;;;0.47;;
52974;SDS011;38839;45.186;5.720;2023-05-10T14:36:11;2.03;;;0.55;;
52974;SDS011;38839;45.186;5.720;2023-05-10T14:38:37;1.98;;;0.50;;
52974;SDS011;38839;45.186;5.720;2023-05-10T14:41:02;0.88;;;0.40;;
52974;SDS011;38839;45.186;5.720;2023-05-10T14:43:28;1.50;;;0.40;;
52974;SDS011;38839;45.186;5.720;2023-05-10T14:45:53;1.70;;;0.60;;
52974;SDS011;38839;45.186;5.720;2023-05-10T14:48:19;1.30;;;0.50;;
52974;SDS011;38839;45.186;5.720;2023-05-10T14:50:46;1.33;;;0.63;;
52974;SDS011;38839;45.186;5.720;2023-05-10T14:53:11;1.35;;;0.40;;
52974;SDS011;38839;45.186;5.720;2023-05-10T14:55:36;2.75;;;0.70;;
52974;SDS011;38839;45.186;5.720;2023-05-10T14:58:03;2.00;;;0.80;;
52974;SDS011;38839;45.186;5.720;2023-05-10T15:00:28;1.48;;;0.52;;
52974;SDS011;38839;45.186;5.720;2023-05-10T15:02:55;1.50;;;0.52;;
52974;SDS011;38839;45.186;5.720;2023-05-10T15:05:20;1.17;;;0.57;;
52974;SDS011;38839;45.186;5.720;2023-05-10T15:07:46;1.38;;;0.60;;
52974;SDS011;38839;45.186;5.720;2023-05-10T15:10:11;1.10;;;0.40;;
52974;SDS011;38839;45.186;5.720;2023-05-10T15:12:37;0.93;;;0.50;;
52974;SDS011;38839;45.186;5.720;2023-05-10T15:15:03;1.88;;;0.60;;
52974;SDS011;38839;45.186;5.720;2023-05-10T15:17:29;3.00;;;0.77;;
52974;SDS011;38839;45.186;5.720;2023-05-10T15:19:55;1.75;;;0.47;;
52974;SDS011;38839;45.186;5.720;2023-05-10T15:22:20;2.08;;;0.60;;
52974;SDS011;38839;45.186;5.720;2023-05-10T15:24:46;1.85;;;0.77;;
52974;SDS011;38839;45.186;5.720;2023-05-10T15:27:11;3.03;;;1.30;;